This is the latest recevied weather packets stored in our database for station/object JH5EWP-13. If no packets are shown the sender has not sent any weather packets the latest 10 day(s).
| Time | Temp. | Humidity | Pressure | Rain* | Wind** | Luminosity | Snow |
|---|---|---|---|---|---|---|---|
| 1778059128 | 21.11° C | 39% | 1006.9 hPa | 0 mm | - | - | - |
| 1778058227 | 21.11° C | 38% | 1006.8 hPa | 0 mm | - | - | - |
| 1778057327 | 21.67° C | 36% | 1006.9 hPa | 0 mm | - | - | - |
| 1778056427 | 22.22° C | 39% | 1006.8 hPa | 0 mm | - | - | - |
| 1778055527 | 22.22° C | 40% | 1006.8 hPa | 0 mm | - | - | - |
| 1778054627 | 22.78° C | 35% | 1006.8 hPa | 0 mm | - | - | - |
| 1778053728 | 22.78° C | 34% | 1006.9 hPa | 0 mm | - | - | - |
| 1778052828 | 22.78° C | 33% | 1006.8 hPa | 0 mm | - | - | - |
| 1778051928 | 23.33° C | 33% | 1006.8 hPa | 0 mm | - | - | - |
| 1778051028 | 23.89° C | 32% | 1006.7 hPa | 0 mm | - | - | - |
| 1778050127 | 24.44° C | 33% | 1006.7 hPa | 0 mm | - | - | - |
| 1778049227 | 23.33° C | 33% | 1006.8 hPa | 0 mm | - | - | - |
| 1778048326 | 23.33° C | 33% | 1006.9 hPa | 0 mm | - | - | - |
| 1778047426 | 23.33° C | 34% | 1007.2 hPa | 0 mm | - | - | - |
| 1778046528 | 23.33° C | 33% | 1007.3 hPa | 0 mm | - | - | - |
| 1778045628 | 23.89° C | 32% | 1007.3 hPa | 0 mm | - | - | - |
| 1778044728 | 24.44° C | 31% | 1007.3 hPa | 0 mm | - | - | - |
| 1778043828 | 24.44° C | 32% | 1007.5 hPa | 0 mm | - | - | - |
| 1778042928 | 22.78° C | 33% | 1007.9 hPa | 0 mm | - | - | - |
| 1778042027 | 24.44° C | 32% | 1007.9 hPa | 0 mm | - | - | - |
| 1778041127 | 23.89° C | 32% | 1008.1 hPa | 0 mm | - | - | - |
| 1778040226 | 23.33° C | 35% | 1008.1 hPa | 0 mm | - | - | - |
| 1778039326 | 22.78° C | 34% | 1008.3 hPa | 0 mm | - | - | - |
| 1778038427 | 23.89° C | 32% | 1008.4 hPa | 0 mm | - | - | - |
| 1778037527 | 23.33° C | 34% | 1008.7 hPa | 0 mm | - | - | - |
* Rain latest hour (hover to see other rain measurements)
** Current wind speed in m/s (hover to see current wind gust speed)